Time;durP1;ratioP1;P1;durP2;ratioP2;P2;SDS_P1;SDS_P2;PMS_P1;PMS_P2;Temp;Humidity;BMP_temperature;BMP_pressure;BME280_temperature;BME280_humidity;BME280_pressure;Samples;Min_cycle;Max_cycle;Signal;HPM_P1;HPM_P2
2024/01/09 00:00:06;;;;;;;14.00;7.10;;;;;;;-145.69;55.57;52422.59;5093113;28;20232;-80
2024/01/09 00:02:34;;;;;;;15.93;7.20;;;;;;;-145.69;56.21;52420.63;5097216;28;20225;-79
2024/01/09 00:05:01;;;;;;;16.10;7.03;;;;;;;-145.69;55.62;52388.94;5092773;28;20286;-80
2024/01/09 00:07:27;;;;;;;18.13;7.33;;;;;;;-145.69;55.79;52400.81;5092685;28;20213;-80
2024/01/09 00:09:54;;;;;;;13.53;6.83;;;;;;;-145.69;56.17;52392.91;5092662;28;20293;-80
2024/01/09 00:12:23;;;;;;;15.27;7.30;;;;;;;-145.69;56.34;52412.69;5093286;28;20210;-79
2024/01/09 00:14:49;;;;;;;15.53;6.43;;;;;;;-145.69;56.27;52416.66;5093209;28;20206;-80
2024/01/09 00:17:16;;;;;;;16.10;6.40;;;;;;;-145.69;56.38;52406.75;5092768;28;20255;-80
2024/01/09 00:19:46;;;;;;;15.83;6.67;;;;;;;-145.69;55.57;52412.69;5093077;28;20202;-80
2024/01/09 00:22:13;;;;;;;15.60;6.93;;;;;;;-145.69;55.77;52428.53;5094276;28;20202;-80
2024/01/09 00:24:39;;;;;;;15.87;7.63;;;;;;;-145.69;55.67;52428.53;5095273;28;20210;-79
2024/01/09 00:27:06;;;;;;;20.43;7.03;;;;;;;-145.69;56.16;52408.75;5093020;28;20202;-78
2024/01/09 00:29:34;;;;;;;13.97;6.90;;;;;;;-145.69;56.10;52420.63;5092789;28;20204;-80
2024/01/09 00:32:01;;;;;;;18.00;7.17;;;;;;;-145.69;55.64;52396.84;5093047;28;20587;-80
2024/01/09 00:34:28;;;;;;;15.53;7.53;;;;;;;-145.69;55.37;52454.28;5092344;28;20595;-80
2024/01/09 00:36:56;;;;;;;16.37;7.70;;;;;;;-145.69;56.03;52408.75;5092765;28;20669;-79
2024/01/09 00:39:22;;;;;;;13.60;6.37;;;;;;;-145.69;56.04;52418.63;5092725;28;20283;-80
2024/01/09 00:41:49;;;;;;;16.57;6.90;;;;;;;-145.69;55.37;52420.63;5093027;28;20206;-80
2024/01/09 00:44:15;;;;;;;15.47;6.83;;;;;;;-145.69;55.82;52444.38;5092753;28;20584;-80
2024/01/09 00:46:42;;;;;;;19.17;7.13;;;;;;;-145.69;55.70;52412.69;5092877;28;20718;-79
2024/01/09 00:49:08;;;;;;;14.73;7.50;;;;;;;-145.69;55.74;52422.59;5092980;28;20201;-79
2024/01/09 00:51:35;;;;;;;16.43;7.20;;;;;;;-145.69;56.31;52416.66;5092962;28;20198;-79
2024/01/09 00:54:03;;;;;;;16.70;6.60;;;;;;;-145.69;56.57;52388.94;5092420;28;20198;-79
2024/01/09 00:56:32;;;;;;;19.53;8.03;;;;;;;-145.69;56.45;52422.59;5092747;28;20561;-79
2024/01/09 00:58:58;;;;;;;18.30;8.10;;;;;;;-145.69;55.97;52426.56;5092430;28;20230;-79
2024/01/09 01:01:25;;;;;;;18.33;8.30;;;;;;;-145.69;56.32;52428.53;5092648;28;20206;-79
2024/01/09 01:03:51;;;;;;;15.57;6.90;;;;;;;-145.69;56.40;52416.66;5092270;28;20229;-79
2024/01/09 01:06:18;;;;;;;17.97;7.87;;;;;;;-145.69;56.27;52442.41;5092312;28;20206;-79
2024/01/09 01:08:44;;;;;;;17.27;7.20;;;;;;;-145.69;56.65;52396.84;5092488;28;20201;-79
2024/01/09 01:11:11;;;;;;;18.37;7.90;;;;;;;-145.69;56.43;52420.63;5092401;28;20722;-79
2024/01/09 01:13:38;;;;;;;18.90;7.70;;;;;;;-145.69;56.17;52440.44;5092144;28;20204;-80
2024/01/09 01:16:04;;;;;;;17.13;8.13;;;;;;;-145.69;56.62;52440.44;5092084;28;20679;-79
2024/01/09 01:18:31;;;;;;;16.60;7.30;;;;;;;-145.69;56.01;52414.69;5092446;28;20198;-79
2024/01/09 01:20:57;;;;;;;17.40;7.90;;;;;;;-145.69;55.71;52390.91;5092428;28;20222;-79
2024/01/09 01:23:24;;;;;;;21.85;10.95;;;;;;;-145.69;56.28;52422.59;5094514;28;20456;-79
2024/01/09 01:25:50;;;;;;;16.90;8.37;;;;;;;-145.69;55.03;52388.94;5094994;28;20201;-80
2024/01/09 01:28:18;;;;;;;18.47;8.40;;;;;;;-145.69;55.30;52454.28;5095858;28;20205;-80
2024/01/09 01:30:45;;;;;;;19.30;8.90;;;;;;;-145.69;55.44;52398.84;5095830;28;20194;-80
2024/01/09 01:33:11;;;;;;;23.43;10.17;;;;;;;-145.69;55.63;52410.72;5096337;28;20210;-80
2024/01/09 01:35:37;;;;;;;18.20;8.13;;;;;;;-145.69;55.54;52396.84;5095960;28;20245;-80
2024/01/09 01:38:04;;;;;;;17.23;8.33;;;;;;;-145.69;55.02;52416.66;5096087;28;20688;-80
2024/01/09 01:40:31;;;;;;;16.53;7.80;;;;;;;-145.69;55.54;52396.84;5096038;28;20202;-80
2024/01/09 01:42:58;;;;;;;20.00;7.80;;;;;;;-145.69;55.43;52410.72;5095619;28;20218;-80
2024/01/09 01:45:26;;;;;;;18.10;7.13;;;;;;;-145.69;55.38;52386.97;5095678;28;20284;-79
2024/01/09 01:47:52;;;;;;;18.27;7.87;;;;;;;-145.69;54.86;52408.75;5096122;28;20202;-80
2024/01/09 01:50:20;;;;;;;17.90;8.50;;;;;;;-145.69;54.44;52440.44;5095647;28;20198;-79
2024/01/09 01:52:47;;;;;;;18.97;8.60;;;;;;;-145.69;54.10;52390.91;5095256;28;20209;-79
2024/01/09 01:55:15;;;;;;;18.60;7.73;;;;;;;-145.69;54.66;52412.69;5095696;28;20205;-79
2024/01/09 01:57:43;;;;;;;17.63;7.50;;;;;;;-145.69;54.06;52432.50;5095361;28;20200;-79
2024/01/09 02:00:11;;;;;;;15.63;8.43;;;;;;;-145.69;54.33;52381.00;5095300;28;20226;-79
2024/01/09 02:02:39;;;;;;;20.63;8.20;;;;;;;-145.69;53.34;52406.75;5084747;28;20199;-80
2024/01/09 02:05:07;;;;;;;23.20;8.43;;;;;;;-145.69;53.61;52432.50;5076259;28;20195;-80
2024/01/09 02:07:34;;;;;;;17.87;8.10;;;;;;;-145.69;53.12;52410.72;5082950;28;20664;-80
2024/01/09 02:10:01;;;;;;;17.90;8.10;;;;;;;-145.69;53.65;52410.72;5094413;28;20197;-80
2024/01/09 02:12:27;;;;;;;16.60;7.93;;;;;;;-145.69;53.90;52410.72;5095005;28;20560;-79
2024/01/09 02:14:54;;;;;;;20.40;8.93;;;;;;;-145.69;53.95;52418.63;5095455;28;20210;-80
2024/01/09 02:17:20;;;;;;;20.43;7.97;;;;;;;-145.69;53.54;52398.84;5095383;28;20206;-80
2024/01/09 02:19:48;;;;;;;21.73;9.73;;;;;;;-145.69;53.03;52373.09;5095322;28;20198;-79
2024/01/09 02:22:15;;;;;;;18.13;8.10;;;;;;;-145.69;53.80;52404.78;5094836;28;20206;-79
2024/01/09 02:24:41;;;;;;;19.37;7.83;;;;;;;-145.69;53.09;52412.69;5095090;28;20244;-79
2024/01/09 02:27:14;;;;;;;17.83;7.70;;;;;;;-145.69;53.22;52377.06;5095183;28;20205;-79
2024/01/09 02:29:48;;;;;;;16.57;8.47;;;;;;;-145.69;52.97;52377.06;5095237;28;20202;-79
2024/01/09 02:32:16;;;;;;;19.80;8.80;;;;;;;-145.69;53.70;52402.78;5095143;28;20198;-78
2024/01/09 02:34:44;;;;;;;21.17;9.13;;;;;;;-145.69;53.55;52396.84;5094399;28;20284;-79
2024/01/09 02:37:11;;;;;;;18.63;8.27;;;;;;;-145.69;53.01;52434.47;5094762;28;20201;-78
2024/01/09 02:39:37;;;;;;;21.00;8.57;;;;;;;-145.69;52.97;52416.66;5094862;28;20198;-78
2024/01/09 02:42:04;;;;;;;19.57;8.47;;;;;;;-145.69;53.27;52384.97;5094734;28;20202;-78
2024/01/09 02:44:31;;;;;;;19.10;8.27;;;;;;;-145.69;53.91;52412.69;5094667;28;20263;-78
2024/01/09 02:46:59;;;;;;;20.57;8.73;;;;;;;-145.69;53.15;52392.91;5094690;28;20202;-79
2024/01/09 02:49:25;;;;;;;17.00;8.60;;;;;;;-145.69;53.18;52430.53;5094560;28;20225;-79
2024/01/09 02:51:52;;;;;;;24.30;9.03;;;;;;;-145.69;53.32;52408.75;5094550;28;20201;-79
2024/01/09 02:54:19;;;;;;;19.80;8.50;;;;;;;-145.69;52.93;52424.59;5094876;28;20201;-79
2024/01/09 02:56:45;;;;;;;19.83;8.73;;;;;;;-145.69;52.84;52369.13;5094246;28;20209;-78
2024/01/09 02:59:12;;;;;;;19.77;8.40;;;;;;;-145.69;53.15;52424.59;5094267;28;20711;-79
2024/01/09 03:01:38;;;;;;;18.47;8.03;;;;;;;-145.69;52.70;52408.75;5094538;28;20212;-79
2024/01/09 03:04:06;;;;;;;21.87;8.63;;;;;;;-145.69;52.35;52410.72;5094403;28;20236;-78
2024/01/09 03:06:33;;;;;;;21.50;8.40;;;;;;;-145.69;53.04;52398.84;5094275;28;20290;-79
2024/01/09 03:08:59;;;;;;;20.80;8.47;;;;;;;-145.69;52.77;52359.22;5094534;28;20209;-78
2024/01/09 03:11:26;;;;;;;22.30;8.63;;;;;;;-145.69;52.49;52428.53;5094439;28;20210;-79
2024/01/09 03:13:52;;;;;;;21.83;8.80;;;;;;;-145.69;53.27;52402.78;5094137;28;20201;-78
2024/01/09 03:16:19;;;;;;;19.63;8.40;;;;;;;-145.69;53.09;52420.63;5094191;28;20209;-78
2024/01/09 03:18:45;;;;;;;20.57;8.90;;;;;;;-145.69;53.47;52432.50;5093682;28;20656;-78
2024/01/09 03:21:13;;;;;;;18.73;8.77;;;;;;;-145.69;53.07;52416.66;5098510;28;20197;-79
2024/01/09 03:23:40;;;;;;;20.83;8.73;;;;;;;-145.69;53.49;52402.78;5114535;28;20229;-79
2024/01/09 03:26:06;;;;;;;22.23;9.13;;;;;;;-145.69;53.45;52388.94;5114383;28;20266;-80
2024/01/09 03:28:33;;;;;;;21.50;8.83;;;;;;;-145.69;52.79;52426.56;5114322;28;20632;-79
2024/01/09 03:30:59;;;;;;;22.47;9.23;;;;;;;-145.69;53.25;52398.84;5114034;28;20197;-78
2024/01/09 03:33:26;;;;;;;19.03;8.90;;;;;;;-145.69;52.97;52384.97;5114183;28;20205;-80
2024/01/09 03:35:52;;;;;;;19.20;8.33;;;;;;;-145.69;53.65;52428.53;5100044;28;20206;-79
2024/01/09 03:38:20;;;;;;;19.80;9.20;;;;;;;-145.69;52.85;52388.94;5093863;28;20206;-78
2024/01/09 03:40:46;;;;;;;24.17;9.03;;;;;;;-145.69;52.36;52388.94;5093827;28;20232;-79
2024/01/09 03:43:13;;;;;;;25.03;9.13;;;;;;;-145.69;52.62;52410.72;5093627;28;20212;-80
2024/01/09 03:45:40;;;;;;;18.03;8.20;;;;;;;-145.69;52.68;52402.78;5093666;28;20259;-79
2024/01/09 03:48:07;;;;;;;23.23;9.73;;;;;;;-145.69;52.96;52420.63;5093729;28;20232;-79
2024/01/09 03:50:33;;;;;;;20.37;8.60;;;;;;;-145.69;52.62;52392.91;5093185;28;20213;-79
2024/01/09 03:53:00;;;;;;;23.97;9.70;;;;;;;-145.69;52.84;52410.72;5093545;28;20229;-79
2024/01/09 03:55:31;;;;;;;19.27;8.40;;;;;;;-145.69;53.02;52386.97;5093487;28;20198;-79
2024/01/09 03:57:57;;;;;;;22.10;9.13;;;;;;;-145.69;53.00;52416.66;5093436;28;20281;-79
2024/01/09 04:00:23;;;;;;;23.73;8.67;;;;;;;-145.69;52.59;52394.88;5093409;28;20224;-79
2024/01/09 04:02:50;;;;;;;23.83;8.90;;;;;;;-145.69;52.84;52408.75;5093251;28;20225;-79
2024/01/09 04:05:16;;;;;;;23.97;9.63;;;;;;;-145.69;52.79;52390.91;5093314;28;20230;-79
2024/01/09 04:07:43;;;;;;;23.00;9.23;;;;;;;-145.69;52.91;52410.72;5093530;28;20202;-80
2024/01/09 04:10:10;;;;;;;25.43;9.30;;;;;;;-145.69;52.71;52388.94;5093361;28;20198;-79
2024/01/09 04:12:37;;;;;;;26.27;9.20;;;;;;;-145.69;52.37;52418.63;5082034;28;20222;-79
2024/01/09 04:15:05;;;;;;;21.23;8.40;;;;;;;-145.69;52.57;52384.97;5072916;28;20295;-79
2024/01/09 04:17:31;;;;;;;24.83;9.83;;;;;;;-145.69;52.12;52440.44;5072926;28;20211;-79
2024/01/09 04:19:58;;;;;;;25.17;8.93;;;;;;;-145.69;53.22;52416.66;5078835;28;20194;-79
2024/01/09 04:22:24;;;;;;;19.23;8.97;;;;;;;-145.69;52.86;52377.06;5093030;28;20198;-80
2024/01/09 04:24:51;;;;;;;22.40;9.77;;;;;;;-145.69;52.66;52386.97;5072816;28;20226;-79
2024/01/09 04:27:17;;;;;;;19.90;8.77;;;;;;;-145.69;52.92;52404.78;5072744;28;20653;-79
2024/01/09 04:29:46;;;;;;;23.93;9.47;;;;;;;-145.69;52.83;52388.94;5072783;28;20210;-79
2024/01/09 04:32:13;;;;;;;22.23;9.53;;;;;;;-145.69;52.84;52384.97;5073251;28;20286;-79
2024/01/09 04:34:39;;;;;;;19.97;9.13;;;;;;;-145.69;52.27;52440.44;5072839;28;20202;-80
2024/01/09 04:37:06;;;;;;;22.83;10.17;;;;;;;-145.69;52.73;52377.06;5072760;28;20650;-80
2024/01/09 04:39:32;;;;;;;23.27;9.50;;;;;;;-145.69;52.39;52420.63;5072729;28;20211;-79
2024/01/09 04:41:59;;;;;;;24.23;9.23;;;;;;;-145.69;53.05;52402.78;5072879;28;20199;-79
2024/01/09 04:44:25;;;;;;;24.13;9.83;;;;;;;-145.69;53.15;52418.63;5072501;28;20265;-79
2024/01/09 04:46:53;;;;;;;22.40;9.57;;;;;;;-145.69;53.26;52414.69;5072700;28;20203;-78
2024/01/09 04:49:20;;;;;;;25.43;9.77;;;;;;;-145.69;52.62;52422.59;5072780;28;20203;-79
2024/01/09 04:51:46;;;;;;;21.33;9.57;;;;;;;-145.69;53.30;52400.81;5105562;28;20197;-79
2024/01/09 04:54:13;;;;;;;22.10;9.90;;;;;;;-145.69;52.97;52402.78;5113245;28;20201;-80
2024/01/09 04:56:39;;;;;;;20.80;8.87;;;;;;;-145.69;53.04;52396.84;5114682;28;20284;-79
2024/01/09 04:59:05;;;;;;;23.23;9.67;;;;;;;-145.69;52.59;52410.72;5116899;28;20232;-79
2024/01/09 05:01:32;;;;;;;22.17;10.03;;;;;;;-145.69;52.69;52404.78;5117096;27;20579;-79
2024/01/09 05:04:00;;;;;;;21.03;9.80;;;;;;;-145.69;52.92;52408.75;5116969;28;20680;-79
2024/01/09 05:06:26;;;;;;;28.20;9.90;;;;;;;-145.69;53.00;52392.91;5097358;28;20190;-79
2024/01/09 05:08:53;;;;;;;19.67;8.60;;;;;;;-145.69;52.92;52377.06;5096495;28;20194;-79
2024/01/09 05:11:19;;;;;;;19.40;9.40;;;;;;;-145.69;52.19;52373.09;5096028;28;20583;-78
2024/01/09 05:13:46;;;;;;;21.37;9.07;;;;;;;-145.69;52.54;52452.31;5095899;28;20285;-79
2024/01/09 05:16:12;;;;;;;25.30;10.30;;;;;;;-145.69;52.74;52430.53;5096140;28;20654;-80
2024/01/09 05:18:40;;;;;;;24.47;9.30;;;;;;;-145.69;53.45;52398.84;5096450;28;20248;-79
2024/01/09 05:21:08;;;;;;;21.50;9.53;;;;;;;-145.69;53.73;52386.97;5096148;28;20204;-79
2024/01/09 05:23:34;;;;;;;22.17;9.60;;;;;;;-145.69;53.21;52383.00;5096389;28;20194;-79
2024/01/09 05:26:01;;;;;;;22.43;9.33;;;;;;;-145.69;53.00;52392.91;5095718;28;20221;-80
2024/01/09 05:28:27;;;;;;;18.80;9.03;;;;;;;-145.69;54.15;52388.94;5096236;28;20671;-79
2024/01/09 05:30:54;;;;;;;23.20;10.37;;;;;;;-145.69;53.41;52416.66;5096177;28;20276;-80
2024/01/09 05:33:20;;;;;;;22.90;9.37;;;;;;;-145.69;53.40;52412.69;5096301;28;20614;-80
2024/01/09 05:35:47;;;;;;;22.80;10.00;;;;;;;-145.69;53.39;52392.91;5095605;28;20199;-79
2024/01/09 05:38:14;;;;;;;21.47;9.70;;;;;;;-145.69;52.89;52396.84;5095817;28;20202;-80
2024/01/09 05:40:41;;;;;;;27.20;9.43;;;;;;;-145.69;52.89;52406.75;5095738;28;20213;-81
2024/01/09 05:43:07;;;;;;;20.03;9.00;;;;;;;-145.69;53.30;52377.06;5096027;28;20202;-80
2024/01/09 05:45:34;;;;;;;23.50;10.00;;;;;;;-145.69;53.67;52412.69;5095572;28;20630;-79
2024/01/09 05:48:00;;;;;;;25.70;10.13;;;;;;;-145.69;52.99;52416.66;5095975;28;20568;-80
2024/01/09 05:50:27;;;;;;;23.03;10.53;;;;;;;-145.69;53.55;52392.91;5095435;28;20202;-80
2024/01/09 05:52:53;;;;;;;23.63;9.67;;;;;;;-145.69;53.70;52460.22;5095206;28;20679;-79
2024/01/09 05:55:21;;;;;;;23.57;10.80;;;;;;;-145.69;53.36;52381.00;5095453;28;20209;-79
2024/01/09 05:57:47;;;;;;;21.40;9.93;;;;;;;-145.69;54.05;52388.94;5095928;28;20198;-79
2024/01/09 06:00:16;;;;;;;23.47;9.43;;;;;;;-145.69;54.66;52384.97;5095128;28;20234;-79
2024/01/09 06:02:42;;;;;;;25.83;9.20;;;;;;;-145.69;53.65;52416.66;5095642;28;20576;-79
2024/01/09 06:05:09;;;;;;;23.17;9.30;;;;;;;-145.69;53.96;52412.69;5095471;28;20225;-80
2024/01/09 06:07:35;;;;;;;22.97;9.83;;;;;;;-145.69;53.81;52414.69;5094331;28;20198;-79
2024/01/09 06:10:02;;;;;;;25.17;9.30;;;;;;;-145.69;54.23;52420.63;5088202;28;20229;-79
2024/01/09 06:12:30;;;;;;;22.73;9.47;;;;;;;-145.69;53.74;52412.69;5075251;28;20688;-79
2024/01/09 06:14:57;;;;;;;18.97;9.20;;;;;;;-145.69;53.55;52430.53;5075385;28;20201;-78
2024/01/09 06:17:23;;;;;;;24.67;10.10;;;;;;;-145.69;53.73;52384.97;5075194;28;20207;-79
2024/01/09 06:19:49;;;;;;;23.70;9.40;;;;;;;-145.69;54.09;52420.63;5084073;28;20217;-78
2024/01/09 06:22:16;;;;;;;18.83;9.73;;;;;;;-145.69;54.01;52377.06;5094868;28;20865;-78
2024/01/09 06:24:43;;;;;;;22.23;10.13;;;;;;;-145.69;54.24;52418.63;5095282;28;20226;-79
2024/01/09 06:27:09;;;;;;;27.20;10.00;;;;;;;-145.69;54.78;52452.31;5094840;28;20210;-79
2024/01/09 06:29:37;;;;;;;24.77;10.30;;;;;;;-145.69;54.30;52438.44;5095047;28;20202;-79
2024/01/09 06:32:04;;;;;;;23.37;10.73;;;;;;;-145.69;54.00;52392.91;5095153;28;20194;-79
2024/01/09 06:34:30;;;;;;;27.83;10.63;;;;;;;-145.69;54.88;52434.47;5094434;28;20653;-78
2024/01/09 06:36:56;;;;;;;30.27;11.10;;;;;;;-145.69;54.61;52446.38;5094665;28;20198;-79
2024/01/09 06:39:23;;;;;;;26.33;10.57;;;;;;;-145.69;55.14;52383.00;5094628;28;20671;-79
2024/01/09 06:41:50;;;;;;;26.37;11.37;;;;;;;-145.69;55.29;52386.97;5094984;28;20640;-79
2024/01/09 06:44:16;;;;;;;24.33;10.60;;;;;;;-145.69;55.26;52418.63;5094618;28;20222;-79
2024/01/09 06:46:44;;;;;;;33.50;12.10;;;;;;;-145.69;55.49;52406.75;5094618;28;20206;-79
2024/01/09 06:49:10;;;;;;;26.90;10.73;;;;;;;-145.69;54.91;52412.69;5094312;28;20206;-79
2024/01/09 06:51:37;;;;;;;32.67;11.13;;;;;;;-145.69;53.99;52400.81;5094236;28;20205;-79
2024/01/09 06:54:03;;;;;;;26.83;11.33;;;;;;;-145.69;54.38;52414.69;5094439;28;20661;-80
2024/01/09 06:56:30;;;;;;;25.50;11.33;;;;;;;-145.69;54.86;52400.81;5094193;28;20289;-78
2024/01/09 06:58:56;;;;;;;25.03;10.97;;;;;;;-145.69;55.39;52400.81;5094304;28;20257;-79
2024/01/09 07:01:22;;;;;;;28.23;11.73;;;;;;;-145.69;55.01;52412.69;5094595;28;20592;-79
2024/01/09 07:03:50;;;;;;;27.97;11.13;;;;;;;-145.69;54.94;52398.84;5093976;28;20198;-79
2024/01/09 07:06:17;;;;;;;30.53;11.33;;;;;;;-145.69;54.40;52426.56;5093636;28;20224;-79
2024/01/09 07:08:43;;;;;;;37.53;11.57;;;;;;;-145.69;55.26;52373.09;5094435;28;20201;-80
2024/01/09 07:11:10;;;;;;;34.57;15.10;;;;;;;-145.69;55.64;52416.66;5092996;28;20495;-80
2024/01/09 07:13:36;;;;;;;29.03;11.73;;;;;;;-145.69;55.55;52408.75;5094297;28;20259;-80
2024/01/09 07:16:03;;;;;;;30.93;12.13;;;;;;;-145.69;55.52;52367.16;5094258;28;20633;-79
2024/01/09 07:18:29;;;;;;;29.87;11.33;;;;;;;-145.69;55.20;52424.59;5094093;28;20205;-79
2024/01/09 07:20:57;;;;;;;26.63;11.50;;;;;;;-145.69;54.92;52432.50;5093482;28;20201;-78
2024/01/09 07:23:23;;;;;;;31.20;12.10;;;;;;;-145.69;55.11;52412.69;5094269;28;20205;-79
2024/01/09 07:25:51;;;;;;;29.27;11.10;;;;;;;-145.69;55.02;52388.94;5094048;28;20233;-80
2024/01/09 07:28:17;;;;;;;31.77;11.90;;;;;;;-145.69;54.56;52444.38;5093898;28;20205;-79
2024/01/09 07:30:44;;;;;;;27.93;10.70;;;;;;;-145.69;55.38;52381.00;5093644;28;20212;-81
2024/01/09 07:33:10;;;;;;;25.93;11.53;;;;;;;-145.69;54.74;52381.00;5094120;28;20202;-79
2024/01/09 07:35:37;;;;;;;27.57;11.03;;;;;;;-145.69;54.58;52392.91;5093629;28;20652;-79
2024/01/09 07:38:05;;;;;;;25.67;10.70;;;;;;;-145.69;54.57;52402.78;5093287;28;20198;-79
2024/01/09 07:40:32;;;;;;;24.60;11.43;;;;;;;-145.69;55.34;52412.69;5093582;28;20255;-79
2024/01/09 07:42:59;;;;;;;27.40;11.30;;;;;;;-145.69;55.12;52392.91;5093237;28;20205;-79
2024/01/09 07:45:28;;;;;;;29.30;12.40;;;;;;;-145.69;54.71;52448.34;5093830;28;20312;-79
2024/01/09 07:47:55;;;;;;;30.37;12.27;;;;;;;-145.69;55.06;52400.81;5093391;28;20252;-80
2024/01/09 07:50:22;;;;;;;29.53;11.63;;;;;;;-145.69;54.96;52406.75;5093458;28;20199;-79
2024/01/09 07:52:48;;;;;;;30.00;11.90;;;;;;;-145.69;55.16;52412.69;5093721;28;20202;-79
2024/01/09 07:55:16;;;;;;;29.17;12.00;;;;;;;-145.69;54.74;52406.75;5093359;28;20202;-79
2024/01/09 07:57:43;;;;;;;33.30;11.93;;;;;;;-145.69;54.67;52379.03;5093180;28;20206;-79
2024/01/09 08:00:10;;;;;;;29.30;12.10;;;;;;;-145.69;55.19;52371.13;5092910;28;20246;-80
2024/01/09 08:02:36;;;;;;;29.17;11.43;;;;;;;-145.69;54.65;52402.78;5092760;28;20218;-80
2024/01/09 08:05:03;;;;;;;32.63;12.07;;;;;;;-145.69;54.38;52418.63;5080470;28;20230;-79
2024/01/09 08:07:31;;;;;;;29.40;11.63;;;;;;;-145.69;54.77;52406.75;5093040;28;20282;-80
2024/01/09 08:09:57;;;;;;;29.17;12.57;;;;;;;-145.69;54.62;52381.00;5093550;28;20210;-79
2024/01/09 08:12:25;;;;;;;26.93;11.57;;;;;;;-145.69;54.92;52381.00;5093074;28;20204;-80
2024/01/09 08:14:53;;;;;;;25.07;10.83;;;;;;;-145.69;54.74;52381.00;5092922;28;20653;-80
2024/01/09 08:17:19;;;;;;;36.50;11.77;;;;;;;-145.69;54.98;52408.75;5076370;28;20194;-80
2024/01/09 08:19:48;;;;;;;24.90;10.93;;;;;;;-145.69;54.83;52408.75;5073052;28;20199;-79
2024/01/09 08:22:15;;;;;;;25.27;11.50;;;;;;;-145.69;54.98;52418.63;5072808;28;20217;-80
2024/01/09 08:24:41;;;;;;;34.90;12.83;;;;;;;-145.69;54.89;52428.53;5072623;28;20195;-79
2024/01/09 08:27:10;;;;;;;29.40;12.10;;;;;;;-145.69;54.41;52381.00;5072993;28;20202;-80
2024/01/09 08:29:38;;;;;;;29.53;11.90;;;;;;;-145.69;54.00;52396.84;5072861;28;20199;-80
2024/01/09 08:32:06;;;;;;;30.57;11.43;;;;;;;-145.69;54.85;52416.66;5087725;28;20198;-79
2024/01/09 08:34:32;;;;;;;29.87;12.07;;;;;;;-145.69;54.46;52400.81;5092739;28;20194;-79
2024/01/09 08:36:59;;;;;;;36.03;13.43;;;;;;;-145.69;54.45;52408.75;5092263;28;20194;-80
2024/01/09 08:39:25;;;;;;;38.37;13.70;;;;;;;-145.69;54.31;52398.84;5092693;28;20201;-79
2024/01/09 08:41:53;;;;;;;28.10;11.83;;;;;;;-145.69;54.72;52408.75;5092579;28;20198;-79
2024/01/09 08:44:22;;;;;;;28.40;11.60;;;;;;;-145.69;54.41;52416.66;5092469;28;20198;-80
2024/01/09 08:46:52;;;;;;;32.27;11.97;;;;;;;-145.69;54.23;52416.66;5092899;28;20278;-80
2024/01/09 08:49:19;;;;;;;28.10;12.00;;;;;;;-145.69;54.20;52424.59;5092798;28;20198;-78
2024/01/09 08:51:46;;;;;;;29.87;12.40;;;;;;;-145.69;53.66;52424.59;5092940;28;20201;-79
2024/01/09 08:54:12;;;;;;;26.00;11.10;;;;;;;-145.69;53.56;52369.13;5092695;28;20241;-79
2024/01/09 08:56:39;;;;;;;30.83;12.23;;;;;;;-145.69;53.94;52404.78;5092703;28;20675;-79
2024/01/09 08:59:07;;;;;;;30.87;11.50;;;;;;;-145.69;53.78;52400.81;5092193;28;20234;-79
2024/01/09 09:01:35;;;;;;;33.93;12.70;;;;;;;-145.69;53.52;52361.22;5092748;28;20201;-79
2024/01/09 09:04:03;;;;;;;33.30;13.23;;;;;;;-145.69;53.60;52388.94;5092707;28;20213;-80
2024/01/09 09:06:30;;;;;;;32.20;12.97;;;;;;;-145.69;53.05;52418.63;5092180;28;20707;-79
2024/01/09 09:08:56;;;;;;;28.93;11.17;;;;;;;-145.69;53.60;52396.84;5091850;28;20191;-79
2024/01/09 09:11:23;;;;;;;29.37;12.60;;;;;;;-145.69;53.40;52394.88;5092714;28;20229;-79
2024/01/09 09:13:50;;;;;;;28.90;12.13;;;;;;;-145.69;52.49;52416.66;5092297;28;20201;-78
2024/01/09 09:16:16;;;;;;;31.03;12.27;;;;;;;-145.69;53.02;52402.78;5092753;28;20213;-79
2024/01/09 09:18:44;;;;;;;27.63;11.67;;;;;;;-145.69;52.90;52392.91;5092387;28;20198;-78
2024/01/09 09:21:12;;;;;;;32.80;13.03;;;;;;;-145.69;53.19;52363.19;5092182;28;20296;-77
2024/01/09 09:23:41;;;;;;;30.07;13.23;;;;;;;-145.69;52.87;52373.09;5092491;28;20202;-78
2024/01/09 09:26:07;;;;;;;29.80;12.53;;;;;;;-145.69;52.74;52377.06;5092498;28;20230;-78
2024/01/09 09:28:34;;;;;;;30.27;13.00;;;;;;;-145.69;52.01;52396.84;5092213;28;20683;-78
2024/01/09 09:31:00;;;;;;;27.80;11.00;;;;;;;-145.69;52.35;52377.06;5092291;28;20209;-78
2024/01/09 09:33:28;;;;;;;30.60;12.27;;;;;;;-145.69;52.36;52396.84;5092228;28;20203;-77
2024/01/09 09:35:55;;;;;;;33.70;13.33;;;;;;;-145.69;53.00;52408.75;5092058;28;20218;-78
2024/01/09 09:38:24;;;;;;;32.97;11.93;;;;;;;-145.69;52.77;52404.78;5091068;28;20229;-78
2024/01/09 09:40:51;;;;;;;30.43;12.03;;;;;;;-145.69;51.66;52367.16;5091794;28;20657;-78
2024/01/09 09:43:24;;;;;;;31.07;12.50;;;;;;;-145.69;52.14;52418.63;5094559;28;20198;-78
2024/01/09 09:45:56;;;;;;;27.90;11.43;;;;;;;-145.69;52.51;52357.25;5096030;28;20226;-79
2024/01/09 09:48:24;;;;;;;26.87;11.63;;;;;;;-145.69;51.48;52396.84;5095955;28;20201;-80
2024/01/09 09:50:55;;;;;;;29.20;11.83;;;;;;;-145.69;52.53;52396.84;5095431;28;20199;-79
2024/01/09 09:53:24;;;;;;;27.37;11.40;;;;;;;-145.69;52.03;52381.00;5095889;28;20194;-78
2024/01/09 09:55:54;;;;;;;26.93;11.53;;;;;;;-145.69;51.90;52394.88;5095654;28;20701;-78
2024/01/09 09:58:21;;;;;;;26.40;11.50;;;;;;;-145.69;52.04;52375.06;5095366;28;20294;-78
2024/01/09 10:00:48;;;;;;;29.73;12.27;;;;;;;-145.69;51.85;52396.84;5095599;28;20296;-78
2024/01/09 10:03:19;;;;;;;27.13;11.30;;;;;;;-145.69;51.44;52400.81;5094800;28;20206;-78
2024/01/09 10:05:47;;;;;;;26.20;12.00;;;;;;;-145.69;51.66;52379.03;5095678;28;20225;-79
2024/01/09 10:08:15;;;;;;;28.77;12.33;;;;;;;-145.69;51.52;52357.25;5095539;28;20213;-79
2024/01/09 10:10:43;;;;;;;26.23;11.73;;;;;;;-145.69;50.79;52396.84;5115774;28;20209;-78
2024/01/09 10:13:10;;;;;;;25.97;11.37;;;;;;;-145.69;51.03;52418.63;5099581;28;20205;-79
2024/01/09 10:15:56;;;;;;;29.10;12.83;;;;;;;-145.69;49.82;52384.97;5084439;28;20209;-79
2024/01/09 10:18:23;;;;;;;29.47;12.50;;;;;;;-145.69;50.41;52418.63;5092786;28;20194;-79
2024/01/09 10:20:49;;;;;;;29.67;11.13;;;;;;;-145.69;51.70;52377.06;5094239;28;20198;-80
2024/01/09 10:23:16;;;;;;;28.47;10.33;;;;;;;-145.69;50.24;52388.94;5095166;28;20282;-80
2024/01/09 10:25:44;;;;;;;29.93;11.73;;;;;;;-145.69;50.42;52398.84;5095201;28;20611;-80
2024/01/09 10:28:16;;;;;;;27.97;11.37;;;;;;;-145.69;50.25;52345.38;5095021;28;20208;-81
2024/01/09 10:30:43;;;;;;;24.47;10.60;;;;;;;-145.69;50.68;52408.75;5094529;28;20186;-80
2024/01/09 10:33:13;;;;;;;28.43;11.23;;;;;;;-145.69;50.36;52361.22;5094488;28;20649;-81
2024/01/09 10:35:40;;;;;;;28.70;11.17;;;;;;;-145.69;50.17;52377.06;5094923;28;20291;-80
2024/01/09 10:38:08;;;;;;;29.83;11.00;;;;;;;-145.69;50.26;52398.84;5094940;28;20213;-81
2024/01/09 10:40:35;;;;;;;27.83;11.27;;;;;;;-145.69;48.97;52377.06;5094560;28;20202;-80
2024/01/09 10:43:03;;;;;;;23.47;10.40;;;;;;;-145.69;49.96;52369.13;5094957;28;20197;-80
2024/01/09 10:45:31;;;;;;;31.03;11.70;;;;;;;-145.69;49.71;52384.97;5094392;28;20230;-81
2024/01/09 10:47:58;;;;;;;25.27;10.83;;;;;;;-145.69;48.54;52353.28;5094912;28;20289;-81
2024/01/09 10:50:26;;;;;;;27.87;11.40;;;;;;;-145.69;49.16;52400.81;5094307;28;20821;-81
2024/01/09 10:52:53;;;;;;;25.47;11.03;;;;;;;-145.69;48.67;52394.88;5094576;28;20224;-78
2024/01/09 10:55:23;;;;;;;25.93;11.70;;;;;;;-145.69;47.66;52381.00;5094211;28;20213;-80
2024/01/09 10:57:51;;;;;;;25.03;10.87;;;;;;;-145.69;48.25;52379.03;5094797;28;20205;-79
2024/01/09 11:00:21;;;;;;;27.37;11.10;;;;;;;-145.69;49.24;52369.13;5094304;28;20591;-78
2024/01/09 11:02:48;;;;;;;28.77;12.00;;;;;;;-145.69;48.92;52400.81;5094084;28;20644;-79